createdAt,value
2018-03-15T00:00:49.387Z,0
2018-03-15T00:01:50.997Z,0
2018-03-15T00:02:52.604Z,0
2018-03-15T00:03:54.209Z,0
2018-03-15T00:04:55.814Z,0
2018-03-15T00:05:57.427Z,0
2018-03-15T00:06:59.040Z,0
2018-03-15T00:08:00.648Z,0
2018-03-15T00:09:02.250Z,0
2018-03-15T00:10:03.862Z,0
2018-03-15T00:11:05.468Z,0
2018-03-15T00:12:07.071Z,0
2018-03-15T00:13:08.679Z,0
2018-03-15T00:14:10.296Z,0
2018-03-15T00:15:11.904Z,0
2018-03-15T00:16:13.510Z,0
2018-03-15T00:17:15.122Z,0
2018-03-15T00:18:16.725Z,0
2018-03-15T00:19:18.419Z,0
2018-03-15T00:20:20.667Z,0
2018-03-15T00:21:22.280Z,0
2018-03-15T00:22:23.885Z,0
2018-03-15T00:23:25.493Z,0
2018-03-15T00:24:27.507Z,0
2018-03-15T00:25:29.603Z,0
2018-03-15T00:26:31.451Z,0
2018-03-15T00:27:33.189Z,0
2018-03-15T00:28:34.800Z,0
2018-03-15T00:29:37.629Z,0
2018-03-15T00:30:39.452Z,0
2018-03-15T00:31:41.065Z,0
2018-03-15T00:32:43.004Z,0
2018-03-15T00:33:44.765Z,0
2018-03-15T00:34:46.378Z,0
2018-03-15T00:35:48.180Z,0
2018-03-15T00:36:49.795Z,0
2018-03-15T00:37:51.675Z,0
2018-03-15T00:38:53.298Z,0
2018-03-15T00:39:55.065Z,0
2018-03-15T00:40:56.667Z,0
2018-03-15T00:41:58.407Z,0
2018-03-15T00:43:00.055Z,0
2018-03-15T00:44:01.660Z,0
2018-03-15T00:45:03.264Z,0
2018-03-15T00:46:04.871Z,0
2018-03-15T00:47:06.484Z,0
2018-03-15T00:48:08.097Z,0
2018-03-15T00:49:09.707Z,0
2018-03-15T00:50:11.316Z,0
2018-03-15T00:51:12.931Z,0
2018-03-15T00:52:14.671Z,0
2018-03-15T00:53:16.447Z,0
2018-03-15T00:54:18.031Z,0
2018-03-15T00:55:19.692Z,0
2018-03-15T00:56:21.316Z,0
2018-03-15T00:57:23.125Z,0
2018-03-15T00:58:24.735Z,0
2018-03-15T00:59:26.344Z,0
2018-03-15T01:00:27.953Z,0
2018-03-15T01:01:29.701Z,0
2018-03-15T01:02:31.476Z,0
2018-03-15T01:03:33.088Z,0
2018-03-15T01:04:34.703Z,0
2018-03-15T01:05:36.310Z,0
2018-03-15T01:06:37.915Z,0
2018-03-15T01:07:39.525Z,0
2018-03-15T01:08:41.443Z,0
2018-03-15T01:09:43.071Z,0
2018-03-15T01:10:45.056Z,0
2018-03-15T01:11:46.804Z,0
2018-03-15T01:12:48.422Z,0
2018-03-15T01:13:50.311Z,0
2018-03-15T01:14:52.071Z,0
2018-03-15T01:15:54.153Z,0
2018-03-15T01:16:55.762Z,0
2018-03-15T01:17:57.618Z,0
2018-03-15T01:18:59.481Z,0
2018-03-15T01:20:01.106Z,0
2018-03-15T01:21:02.702Z,0
2018-03-15T01:22:04.396Z,0
2018-03-15T01:23:06.002Z,0
2018-03-15T01:24:07.610Z,0
2018-03-15T01:25:09.225Z,0
2018-03-15T01:26:10.833Z,0
2018-03-15T01:27:12.476Z,0
2018-03-15T01:28:14.128Z,0
2018-03-15T01:29:15.739Z,0
2018-03-15T01:30:17.351Z,0
2018-03-15T01:31:18.993Z,0
2018-03-15T01:32:20.607Z,0
2018-03-15T01:33:22.214Z,0
2018-03-15T01:34:23.825Z,0
2018-03-15T01:35:25.429Z,0
2018-03-15T01:36:27.274Z,0
2018-03-15T01:37:29.111Z,0
2018-03-15T01:38:30.852Z,0
2018-03-15T01:39:32.605Z,0
2018-03-15T01:40:34.216Z,0
2018-03-15T01:41:35.841Z,0
2018-03-15T01:42:37.452Z,0
2018-03-15T01:43:39.058Z,0
2018-03-15T01:44:40.668Z,0
2018-03-15T01:45:42.277Z,0
2018-03-15T01:46:43.883Z,0
2018-03-15T01:47:45.495Z,0
2018-03-15T01:48:47.101Z,0
2018-03-15T01:49:48.707Z,0
2018-03-15T01:50:50.313Z,0
2018-03-15T01:51:51.923Z,0
2018-03-15T01:52:53.528Z,0
2018-03-15T01:53:55.137Z,0
2018-03-15T01:54:56.750Z,0
2018-03-15T01:55:58.361Z,0
2018-03-15T01:56:59.964Z,0
2018-03-15T01:58:01.570Z,0
2018-03-15T01:59:03.180Z,0
2018-03-15T02:00:04.789Z,0
2018-03-15T02:01:06.391Z,0
2018-03-15T02:02:07.997Z,0
2018-03-15T02:03:09.610Z,0
2018-03-15T02:04:11.217Z,0
2018-03-15T02:05:12.824Z,0
2018-03-15T02:06:14.430Z,0
2018-03-15T02:07:16.044Z,0
2018-03-15T02:08:17.653Z,0
2018-03-15T02:09:19.258Z,0
2018-03-15T02:10:20.870Z,0
2018-03-15T02:11:22.475Z,0
2018-03-15T02:12:24.079Z,0
2018-03-15T02:13:25.685Z,0
2018-03-15T02:14:27.292Z,0
2018-03-15T02:15:28.903Z,0
2018-03-15T02:16:30.513Z,0
2018-03-15T02:17:32.158Z,0
2018-03-15T02:18:33.722Z,0
2018-03-15T02:19:35.331Z,0
2018-03-15T02:20:36.940Z,0
2018-03-15T02:21:38.547Z,0
2018-03-15T02:22:40.165Z,0
2018-03-15T02:23:41.772Z,0
2018-03-15T02:24:43.381Z,0
2018-03-15T02:25:44.986Z,0
2018-03-15T02:26:46.593Z,0
2018-03-15T02:27:48.202Z,0
2018-03-15T02:28:49.807Z,0
2018-03-15T02:29:51.417Z,0
2018-03-15T02:30:53.022Z,0
2018-03-15T02:31:54.634Z,0
2018-03-15T02:32:56.237Z,0
2018-03-15T02:33:57.853Z,0
2018-03-15T02:34:59.455Z,0
2018-03-15T02:36:01.068Z,0
2018-03-15T02:37:02.670Z,0
2018-03-15T02:38:04.275Z,0
2018-03-15T02:39:05.889Z,0
2018-03-15T02:40:07.489Z,0
2018-03-15T02:41:09.102Z,0
2018-03-15T02:42:10.701Z,0
2018-03-15T02:43:12.315Z,0
2018-03-15T02:44:13.919Z,0
2018-03-15T02:45:15.532Z,0
2018-03-15T02:46:17.135Z,0
2018-03-15T02:47:18.754Z,0
2018-03-15T02:48:20.348Z,0
2018-03-15T02:49:21.957Z,0
2018-03-15T02:50:23.568Z,0
2018-03-15T02:51:25.173Z,0
2018-03-15T02:52:26.785Z,0
2018-03-15T02:53:28.397Z,0
2018-03-15T02:54:30.009Z,0
2018-03-15T02:55:31.600Z,0
2018-03-15T02:56:33.212Z,0
2018-03-15T02:57:34.821Z,0
2018-03-15T02:58:36.429Z,0
2018-03-15T02:59:38.036Z,0
2018-03-15T03:00:39.655Z,0
2018-03-15T03:01:41.261Z,0
2018-03-15T03:02:42.865Z,0
2018-03-15T03:03:44.471Z,0
2018-03-15T03:04:46.080Z,0
2018-03-15T03:05:47.693Z,0
2018-03-15T03:06:49.298Z,0
2018-03-15T03:07:51.878Z,0
2018-03-15T03:08:53.491Z,0
2018-03-15T03:09:55.098Z,0
2018-03-15T03:10:56.704Z,0
2018-03-15T03:11:58.312Z,0
2018-03-15T03:12:59.922Z,0
2018-03-15T03:14:01.537Z,0
2018-03-15T03:15:03.144Z,0
2018-03-15T03:16:04.741Z,0
2018-03-15T03:17:06.352Z,0
2018-03-15T03:18:07.965Z,0
2018-03-15T03:19:09.566Z,0
2018-03-15T03:20:11.172Z,0
2018-03-15T03:21:12.786Z,0
2018-03-15T03:22:14.397Z,0
2018-03-15T03:23:15.999Z,0
2018-03-15T03:24:17.607Z,0
2018-03-15T03:25:19.218Z,0
2018-03-15T03:26:20.821Z,0
2018-03-15T03:27:22.433Z,0
2018-03-15T03:28:24.038Z,0
2018-03-15T03:29:25.653Z,0
2018-03-15T03:30:27.260Z,0
2018-03-15T03:31:28.866Z,0
2018-03-15T03:32:30.469Z,0
2018-03-15T03:33:32.081Z,0
2018-03-15T03:34:33.684Z,0
2018-03-15T03:35:35.298Z,0
2018-03-15T03:36:36.903Z,0
2018-03-15T03:37:38.515Z,0
2018-03-15T03:38:40.118Z,0
2018-03-15T03:39:41.728Z,0
2018-03-15T03:40:43.330Z,0
2018-03-15T03:41:44.943Z,0
2018-03-15T03:42:46.554Z,0
2018-03-15T03:43:48.161Z,0
2018-03-15T03:44:49.767Z,0
2018-03-15T03:45:51.377Z,0
2018-03-15T03:46:52.988Z,0
2018-03-15T03:47:54.590Z,0
2018-03-15T03:48:56.203Z,0
2018-03-15T03:49:57.806Z,0
2018-03-15T03:50:59.419Z,0
2018-03-15T03:52:01.021Z,0
2018-03-15T03:53:02.628Z,0
2018-03-15T03:54:04.233Z,0
2018-03-15T03:55:05.874Z,0
2018-03-15T03:56:07.449Z,0
2018-03-15T03:57:09.062Z,0
2018-03-15T03:58:10.666Z,0
2018-03-15T03:59:12.271Z,0
2018-03-15T04:00:13.882Z,0
2018-03-15T04:01:15.489Z,0
2018-03-15T04:02:17.095Z,0
2018-03-15T04:03:18.717Z,0
2018-03-15T04:04:20.315Z,0
2018-03-15T04:05:21.920Z,0
2018-03-15T04:06:23.532Z,0
2018-03-15T04:07:25.136Z,0
2018-03-15T04:08:26.744Z,0
2018-03-15T04:09:28.350Z,0
2018-03-15T04:10:29.962Z,0
2018-03-15T04:11:31.574Z,0
2018-03-15T04:12:33.178Z,0
2018-03-15T04:13:34.777Z,0
2018-03-15T04:14:36.388Z,0
2018-03-15T04:15:37.992Z,0
2018-03-15T04:16:39.606Z,0
2018-03-15T04:17:41.212Z,0
2018-03-15T04:18:42.828Z,0
2018-03-15T04:19:44.428Z,0
2018-03-15T04:20:46.039Z,0
2018-03-15T04:21:48.227Z,0
2018-03-15T04:22:49.836Z,0
2018-03-15T04:23:51.445Z,0
2018-03-15T04:24:53.051Z,0
2018-03-15T04:25:54.654Z,0
2018-03-15T04:26:56.267Z,0
2018-03-15T04:27:57.874Z,0
2018-03-15T04:28:59.477Z,0
2018-03-15T04:30:01.796Z,0
2018-03-15T04:31:03.404Z,0
2018-03-15T04:32:05.010Z,0
2018-03-15T04:33:06.617Z,0
2018-03-15T04:34:08.227Z,0
2018-03-15T04:35:09.834Z,0
2018-03-15T04:36:11.446Z,0
2018-03-15T04:37:13.051Z,0
2018-03-15T04:38:14.663Z,0
2018-03-15T04:39:16.272Z,0
2018-03-15T04:40:17.879Z,0
2018-03-15T04:41:19.490Z,0
2018-03-15T04:42:21.096Z,0
2018-03-15T04:43:22.704Z,0
2018-03-15T04:44:24.311Z,0
2018-03-15T04:45:25.921Z,0
2018-03-15T04:46:27.526Z,0
2018-03-15T04:47:29.133Z,0
2018-03-15T04:48:30.746Z,0
2018-03-15T04:49:32.349Z,0
2018-03-15T04:50:33.966Z,0
2018-03-15T04:51:35.565Z,0
2018-03-15T04:52:37.173Z,0
2018-03-15T04:53:38.775Z,0
2018-03-15T04:54:40.389Z,0
2018-03-15T04:55:41.997Z,0
2018-03-15T04:56:43.608Z,0
2018-03-15T04:57:45.210Z,0
2018-03-15T04:58:46.821Z,0
2018-03-15T04:59:48.422Z,0
2018-03-15T05:00:50.033Z,0
2018-03-15T05:01:51.639Z,0
2018-03-15T05:02:53.251Z,0
2018-03-15T05:03:54.854Z,0
2018-03-15T05:04:56.460Z,0
2018-03-15T05:05:58.071Z,0
2018-03-15T05:06:59.685Z,0
2018-03-15T05:08:01.286Z,0
2018-03-15T05:09:02.899Z,0
2018-03-15T05:10:04.510Z,0
2018-03-15T05:11:06.168Z,0
2018-03-15T05:12:07.718Z,0
2018-03-15T05:13:09.324Z,0
2018-03-15T05:14:11.039Z,4
2018-03-15T05:15:12.650Z,0
2018-03-15T05:16:14.254Z,0
2018-03-15T05:17:15.865Z,4
2018-03-15T05:18:17.478Z,0
2018-03-15T05:19:19.074Z,4
2018-03-15T05:20:20.680Z,4
2018-03-15T05:21:22.287Z,4
2018-03-15T05:22:23.899Z,4
2018-03-15T05:23:25.510Z,8
2018-03-15T05:24:27.115Z,8
2018-03-15T05:25:28.728Z,12
2018-03-15T05:26:30.335Z,12
2018-03-15T05:27:31.945Z,12
2018-03-15T05:28:33.552Z,20
2018-03-15T05:29:35.156Z,20
2018-03-15T05:30:36.769Z,24
2018-03-15T05:31:38.377Z,28
2018-03-15T05:32:39.980Z,32
2018-03-15T05:33:41.584Z,40
2018-03-15T05:34:43.196Z,48
2018-03-15T05:35:44.807Z,52
2018-03-15T05:36:46.420Z,64
2018-03-15T05:37:48.024Z,72
2018-03-15T05:38:49.639Z,84
2018-03-15T05:39:51.237Z,96
2018-03-15T05:40:52.854Z,108
2018-03-15T05:41:54.462Z,120
2018-03-15T05:42:56.076Z,132
2018-03-15T05:43:57.683Z,152
2018-03-15T05:44:59.297Z,168
2018-03-15T05:46:00.907Z,188
2018-03-15T05:47:02.529Z,208
2018-03-15T05:48:04.129Z,232
2018-03-15T05:49:05.746Z,252
2018-03-15T05:50:07.352Z,276
2018-03-15T05:51:08.964Z,300
2018-03-15T05:52:10.571Z,328
2018-03-15T05:53:12.189Z,356
2018-03-15T05:54:13.800Z,388
2018-03-15T05:55:15.412Z,420
2018-03-15T05:56:17.019Z,452
2018-03-15T05:57:18.627Z,488
2018-03-15T05:58:20.242Z,524
2018-03-15T05:59:21.851Z,560
2018-03-15T06:00:23.466Z,600
2018-03-15T06:01:25.071Z,644
2018-03-15T06:02:26.684Z,688
2018-03-15T06:03:28.293Z,732
2018-03-15T06:04:29.906Z,780
2018-03-15T06:05:31.515Z,832
2018-03-15T06:06:33.130Z,884
2018-03-15T06:07:34.786Z,936
2018-03-15T06:08:36.354Z,996
2018-03-15T06:09:37.966Z,1048
2018-03-15T06:10:39.574Z,1104
2018-03-15T06:11:41.185Z,1164
2018-03-15T06:12:42.794Z,1224
2018-03-15T06:13:44.420Z,1288
2018-03-15T06:14:46.029Z,1348
2018-03-15T06:15:47.645Z,1404
2018-03-15T06:16:49.256Z,1460
2018-03-15T06:17:50.866Z,1520
2018-03-15T06:18:52.478Z,1580
2018-03-15T06:19:54.097Z,1644
2018-03-15T06:20:55.714Z,1704
2018-03-15T06:21:57.323Z,1768
2018-03-15T06:22:58.937Z,1832
2018-03-15T06:24:00.553Z,1900
2018-03-15T06:25:02.163Z,1956
2018-03-15T06:26:03.780Z,2020
2018-03-15T06:27:05.388Z,2084
2018-03-15T06:28:07.007Z,2140
2018-03-15T06:29:08.620Z,2200
2018-03-15T06:30:10.232Z,2256
2018-03-15T06:31:11.846Z,2316
2018-03-15T06:32:13.996Z,2372
2018-03-15T06:33:15.019Z,2428
2018-03-15T06:34:16.629Z,2488
2018-03-15T06:35:18.245Z,2540
2018-03-15T06:36:19.862Z,2588
2018-03-15T06:37:21.472Z,2648
2018-03-15T06:38:23.084Z,2688
2018-03-15T06:39:24.694Z,2728
2018-03-15T06:40:26.311Z,2776
2018-03-15T06:41:27.923Z,2812
2018-03-15T06:42:29.537Z,2836
2018-03-15T06:43:31.156Z,2872
2018-03-15T06:44:32.763Z,2916
2018-03-15T06:45:34.378Z,2944
2018-03-15T06:46:35.987Z,2964
2018-03-15T06:47:37.602Z,2992
2018-03-15T06:48:39.210Z,3024
2018-03-15T06:49:40.823Z,3040
2018-03-15T06:50:42.442Z,3068
2018-03-15T06:51:44.051Z,3096
2018-03-15T06:52:45.671Z,3136
2018-03-15T06:53:47.280Z,3168
2018-03-15T06:54:48.898Z,3188
2018-03-15T06:55:50.510Z,3212
2018-03-15T06:56:52.126Z,3284
2018-03-15T06:57:53.739Z,3436
2018-03-15T06:58:55.356Z,3632
2018-03-15T06:59:56.965Z,3440
2018-03-15T07:00:58.579Z,3776
2018-03-15T07:02:00.188Z,3656
2018-03-15T07:03:01.808Z,3716
2018-03-15T07:04:03.416Z,4056
2018-03-15T07:05:05.034Z,5568
2018-03-15T07:06:06.645Z,7236
2018-03-15T07:07:08.262Z,7348
2018-03-15T07:08:09.874Z,6952
2018-03-15T07:09:11.486Z,7348
2018-03-15T07:10:13.099Z,7820
2018-03-15T07:11:14.718Z,7980
2018-03-15T07:12:16.335Z,9448
2018-03-15T07:13:17.944Z,10628
2018-03-15T07:14:19.562Z,10636
2018-03-15T07:15:21.173Z,9584
2018-03-15T07:16:22.807Z,9580
2018-03-15T07:17:24.418Z,9720
2018-03-15T07:18:26.038Z,9920
2018-03-15T07:19:27.651Z,9208
2018-03-15T07:20:29.270Z,10236
2018-03-15T07:21:30.881Z,11132
2018-03-15T07:22:32.498Z,11148
2018-03-15T07:23:34.116Z,11632
2018-03-15T07:24:35.729Z,12172
2018-03-15T07:25:37.354Z,11796
2018-03-15T07:26:38.965Z,11564
2018-03-15T07:27:40.584Z,11224
2018-03-15T07:28:42.195Z,11640
2018-03-15T07:29:43.814Z,12560
2018-03-15T07:30:45.465Z,13064
2018-03-15T07:31:47.087Z,13796
2018-03-15T07:32:48.850Z,14528
2018-03-15T07:33:50.441Z,14240
2018-03-15T07:34:52.052Z,13068
2018-03-15T07:35:53.673Z,11252
2018-03-15T07:36:55.291Z,9764
2018-03-15T07:37:56.909Z,10160
2018-03-15T07:38:58.657Z,13128
2018-03-15T07:40:00.275Z,13384
2018-03-15T07:41:01.899Z,14464
2018-03-15T07:42:03.513Z,13752
2018-03-15T07:43:05.134Z,12608
2018-03-15T07:44:06.750Z,11620
2018-03-15T07:45:08.373Z,10940
2018-03-15T07:46:09.995Z,11172
2018-03-15T07:47:11.612Z,11052
2018-03-15T07:48:13.231Z,11332
2018-03-15T07:49:15.756Z,11916
2018-03-15T07:50:17.356Z,12024
2018-03-15T07:51:18.978Z,12088
2018-03-15T07:52:20.593Z,10664
2018-03-15T07:53:22.214Z,10116
2018-03-15T07:54:23.842Z,11456
2018-03-15T07:55:25.460Z,11928
2018-03-15T07:56:27.077Z,11392
2018-03-15T07:57:28.699Z,11092
2018-03-15T07:58:30.317Z,13836
2018-03-15T07:59:31.938Z,14164
2018-03-15T08:00:33.557Z,13928
2018-03-15T08:01:35.179Z,14200
2018-03-15T08:02:36.800Z,13880
2018-03-15T08:03:38.417Z,14416
2018-03-15T08:04:40.036Z,15584
2018-03-15T08:05:41.656Z,16224
2018-03-15T08:06:43.272Z,15008
2018-03-15T08:07:44.888Z,17184
2018-03-15T08:08:46.514Z,15744
2018-03-15T08:09:48.139Z,19072
2018-03-15T08:10:49.756Z,19520
2018-03-15T08:11:52.162Z,21920
2018-03-15T08:12:53.789Z,21984
2018-03-15T08:13:55.414Z,21568
2018-03-15T08:14:57.033Z,21984
2018-03-15T08:15:58.777Z,24000
2018-03-15T08:17:00.388Z,26592
2018-03-15T08:18:02.013Z,28096
2018-03-15T08:19:04.296Z,28544
2018-03-15T08:20:05.912Z,27424
2018-03-15T08:21:07.539Z,27712
2018-03-15T08:22:09.156Z,29248
2018-03-15T08:23:10.783Z,30496
2018-03-15T08:24:12.415Z,15840
2018-03-15T08:25:14.025Z,16096
2018-03-15T08:26:15.643Z,28320
2018-03-15T08:27:18.084Z,27712
2018-03-15T08:28:19.698Z,28160
2018-03-15T08:29:21.322Z,28352
2018-03-15T08:30:22.941Z,31040
2018-03-15T08:31:24.566Z,31552
2018-03-15T08:32:26.182Z,33184
2018-03-15T08:33:27.811Z,26336
2018-03-15T08:34:29.431Z,32576
2018-03-15T08:35:31.055Z,36096
2018-03-15T08:36:32.676Z,34976
2018-03-15T08:37:34.297Z,33952
2018-03-15T08:38:35.925Z,34176
2018-03-15T08:39:37.601Z,32544
2018-03-15T08:40:39.202Z,32512
2018-03-15T08:41:40.791Z,33152
2018-03-15T08:42:42.418Z,33312
2018-03-15T08:43:44.041Z,33696
2018-03-15T08:44:45.669Z,33952
2018-03-15T08:45:47.291Z,34944
2018-03-15T08:46:48.918Z,33056
2018-03-15T08:47:50.549Z,29248
2018-03-15T08:48:52.168Z,25856
2018-03-15T08:49:53.795Z,25472
2018-03-15T08:50:55.422Z,28928
2018-03-15T08:51:57.047Z,29536
2018-03-15T08:52:58.671Z,30560
2018-03-15T08:54:00.296Z,31968
2018-03-15T08:55:01.925Z,32256
2018-03-15T08:56:03.550Z,31776
2018-03-15T08:57:05.205Z,30368
2018-03-15T08:58:06.803Z,29536
2018-03-15T08:59:08.434Z,29184
2018-03-15T09:00:10.060Z,28480
2018-03-15T09:01:11.683Z,28480
2018-03-15T09:02:13.318Z,25696
2018-03-15T09:03:14.940Z,23232
2018-03-15T09:04:16.579Z,22976
2018-03-15T09:05:18.192Z,22912
2018-03-15T09:06:19.822Z,23104
2018-03-15T09:07:21.451Z,23328
2018-03-15T09:08:23.071Z,24000
2018-03-15T09:09:24.724Z,25888
2018-03-15T09:10:26.325Z,28928
2018-03-15T09:11:27.957Z,29664
2018-03-15T09:12:29.586Z,30464
2018-03-15T09:13:31.216Z,30944
2018-03-15T09:14:32.845Z,32032
2018-03-15T09:15:34.471Z,31232
2018-03-15T09:16:36.097Z,30976
2018-03-15T09:17:37.730Z,31104
2018-03-15T09:18:39.352Z,31520
2018-03-15T09:19:40.980Z,31552
2018-03-15T09:20:42.612Z,31808
2018-03-15T09:21:44.302Z,32256
2018-03-15T09:22:45.867Z,32256
2018-03-15T09:23:47.495Z,33152
2018-03-15T09:24:49.847Z,33376
2018-03-15T09:25:51.472Z,32736
2018-03-15T09:26:53.103Z,32640
2018-03-15T09:27:54.735Z,31840
2018-03-15T09:28:56.357Z,31168
2018-03-15T09:29:57.989Z,31552
2018-03-15T09:30:59.613Z,30464
2018-03-15T09:32:01.243Z,31040
2018-03-15T09:33:02.877Z,34368
2018-03-15T09:34:04.503Z,35808
2018-03-15T09:35:06.135Z,36896
2018-03-15T09:36:07.766Z,36768
2018-03-15T09:37:09.395Z,36864
2018-03-15T09:38:11.020Z,35136
2018-03-15T09:39:12.653Z,35424
2018-03-15T09:40:14.280Z,36192
2018-03-15T09:41:15.915Z,37472
2018-03-15T09:42:17.547Z,38656
2018-03-15T09:43:19.176Z,37088
2018-03-15T09:44:20.802Z,37056
2018-03-15T09:45:22.434Z,38624
2018-03-15T09:46:24.065Z,39616
2018-03-15T09:47:25.693Z,39584
2018-03-15T09:48:27.328Z,39712
2018-03-15T09:49:28.965Z,39744
2018-03-15T09:50:30.599Z,41024
2018-03-15T09:51:32.226Z,40416
2018-03-15T09:52:33.859Z,40160
2018-03-15T09:53:35.490Z,39360
2018-03-15T09:54:37.128Z,39040
2018-03-15T09:55:38.757Z,38944
2018-03-15T09:56:40.396Z,39008
2018-03-15T09:57:42.028Z,38400
2018-03-15T09:58:43.661Z,37632
2018-03-15T09:59:45.294Z,36960
2018-03-15T10:00:46.927Z,37312
2018-03-15T10:01:48.555Z,37504
2018-03-15T10:02:50.192Z,38304
2018-03-15T10:03:51.826Z,40608
2018-03-15T10:04:53.456Z,41824
2018-03-15T10:05:55.096Z,41216
2018-03-15T10:06:56.723Z,40608
2018-03-15T10:07:58.357Z,39552
2018-03-15T10:09:00.022Z,39648
2018-03-15T10:10:01.626Z,39424
2018-03-15T10:11:03.260Z,34784
2018-03-15T10:12:04.889Z,31584
2018-03-15T10:13:06.521Z,33760
2018-03-15T10:14:08.160Z,37376
2018-03-15T10:15:09.791Z,31680
2018-03-15T10:16:11.420Z,33312
2018-03-15T10:17:13.880Z,34496
2018-03-15T10:18:15.519Z,32704
2018-03-15T10:19:17.153Z,34240
2018-03-15T10:20:18.782Z,36928
2018-03-15T10:21:20.417Z,37216
2018-03-15T10:22:22.048Z,36896
2018-03-15T10:23:23.683Z,37824
2018-03-15T10:24:25.332Z,37952
2018-03-15T10:25:26.945Z,37824
2018-03-15T10:26:28.583Z,39296
2018-03-15T10:27:30.256Z,41440
2018-03-15T10:28:31.844Z,40544
2018-03-15T10:29:33.488Z,37792
2018-03-15T10:30:35.122Z,36992
2018-03-15T10:31:36.758Z,35648
2018-03-15T10:32:38.392Z,37728
2018-03-15T10:33:40.021Z,37024
2018-03-15T10:34:41.698Z,36992
2018-03-15T10:35:43.291Z,37952
2018-03-15T10:36:44.927Z,41920
2018-03-15T10:37:46.561Z,47680
2018-03-15T10:38:48.195Z,46336
2018-03-15T10:39:49.828Z,46560
2018-03-15T10:40:51.462Z,43712
2018-03-15T10:41:53.652Z,44032
2018-03-15T10:42:55.284Z,44960
2018-03-15T10:43:56.911Z,37184
2018-03-15T10:44:58.551Z,41632
2018-03-15T10:46:00.177Z,49408
2018-03-15T10:47:01.814Z,47392
2018-03-15T10:48:03.484Z,46880
2018-03-15T10:49:05.085Z,49984
2018-03-15T10:50:06.724Z,44768
2018-03-15T10:51:08.352Z,42976
2018-03-15T10:52:09.988Z,49856
2018-03-15T10:53:11.618Z,45568
2018-03-15T10:54:13.290Z,45856
2018-03-15T10:55:14.888Z,45312
2018-03-15T10:56:16.523Z,45984
2018-03-15T10:57:18.156Z,42624
2018-03-15T10:58:19.793Z,48224
2018-03-15T10:59:21.423Z,42432
2018-03-15T11:00:23.061Z,44160
2018-03-15T11:01:24.694Z,45088
2018-03-15T11:02:26.331Z,43904
2018-03-15T11:03:27.961Z,43872
2018-03-15T11:04:29.590Z,41856
2018-03-15T11:05:31.226Z,40448
2018-03-15T11:06:32.856Z,36864
2018-03-15T11:07:34.496Z,34240
2018-03-15T11:08:36.141Z,38208
2018-03-15T11:09:37.775Z,39776
2018-03-15T11:10:39.410Z,36480
2018-03-15T11:11:41.043Z,34848
2018-03-15T11:12:42.679Z,33632
2018-03-15T11:13:44.308Z,28672
2018-03-15T11:14:45.939Z,28352
2018-03-15T11:15:47.579Z,30752
2018-03-15T11:16:49.215Z,32544
2018-03-15T11:17:50.844Z,33280
2018-03-15T11:18:52.476Z,33472
2018-03-15T11:19:54.111Z,41248
2018-03-15T11:20:55.744Z,40160
2018-03-15T11:21:57.375Z,39808
2018-03-15T11:22:59.008Z,37344
2018-03-15T11:24:00.704Z,40640
2018-03-15T11:25:02.279Z,39680
2018-03-15T11:26:03.906Z,38816
2018-03-15T11:27:05.544Z,38080
2018-03-15T11:28:07.174Z,42400
2018-03-15T11:29:08.807Z,43584
2018-03-15T11:30:10.439Z,43392
2018-03-15T11:31:12.076Z,44928
2018-03-15T11:32:13.702Z,48352
2018-03-15T11:33:15.335Z,45184
2018-03-15T11:34:16.964Z,40448
2018-03-15T11:35:18.597Z,39872
2018-03-15T11:36:20.228Z,39872
2018-03-15T11:37:21.858Z,35136
2018-03-15T11:38:23.497Z,37824
2018-03-15T11:39:25.769Z,35328
2018-03-15T11:40:27.400Z,34528
2018-03-15T11:41:29.024Z,31712
2018-03-15T11:42:30.660Z,30720
2018-03-15T11:43:32.292Z,30144
2018-03-15T11:44:33.971Z,27808
2018-03-15T11:45:35.557Z,28576
2018-03-15T11:46:37.188Z,29216
2018-03-15T11:47:38.819Z,29632
2018-03-15T11:48:40.446Z,30144
2018-03-15T11:49:42.078Z,31200
2018-03-15T11:50:43.763Z,32128
2018-03-15T11:51:45.343Z,29536
2018-03-15T11:52:46.970Z,27840
2018-03-15T11:53:48.598Z,26272
2018-03-15T11:54:50.228Z,25600
2018-03-15T11:55:51.860Z,25664
2018-03-15T11:56:53.485Z,24768
2018-03-15T11:57:55.117Z,23232
2018-03-15T11:58:56.749Z,23936
2018-03-15T11:59:58.383Z,25504
2018-03-15T12:01:00.005Z,15776
2018-03-15T12:02:01.638Z,23456
2018-03-15T12:03:03.268Z,27552
2018-03-15T12:04:04.901Z,27328
2018-03-15T12:05:06.533Z,24896
2018-03-15T12:06:08.161Z,24800
2018-03-15T12:07:09.793Z,22144
2018-03-15T12:08:11.427Z,21568
2018-03-15T12:09:13.074Z,20640
2018-03-15T12:10:14.668Z,19168
2018-03-15T12:11:16.344Z,19520
2018-03-15T12:12:17.961Z,18592
2018-03-15T12:13:19.592Z,19008
2018-03-15T12:14:21.219Z,18848
2018-03-15T12:15:22.848Z,17952
2018-03-15T12:16:25.246Z,15280
2018-03-15T12:17:26.875Z,14852
2018-03-15T12:18:28.499Z,14068
2018-03-15T12:19:30.129Z,13992
2018-03-15T12:20:31.751Z,13888
2018-03-15T12:21:33.386Z,13656
2018-03-15T12:22:35.008Z,13472
2018-03-15T12:23:36.637Z,13288
2018-03-15T12:24:38.264Z,13204
2018-03-15T12:25:39.892Z,13228
2018-03-15T12:26:41.519Z,13172
2018-03-15T12:27:43.145Z,13392
2018-03-15T12:28:44.776Z,13032
2018-03-15T12:29:46.399Z,12916
2018-03-15T12:30:48.029Z,13208
2018-03-15T12:31:49.648Z,13708
2018-03-15T12:32:51.281Z,13428
2018-03-15T12:33:52.902Z,13208
2018-03-15T12:34:54.528Z,13152
2018-03-15T12:35:56.160Z,13128
2018-03-15T12:36:57.788Z,12988
2018-03-15T12:37:59.407Z,12864
2018-03-15T12:39:01.027Z,12648
2018-03-15T12:40:02.658Z,12676
2018-03-15T12:41:04.283Z,12516
2018-03-15T12:42:05.906Z,12384
2018-03-15T12:43:07.538Z,12152
2018-03-15T12:44:09.157Z,11976
2018-03-15T12:45:10.786Z,11888
2018-03-15T12:46:12.407Z,11832
2018-03-15T12:47:14.936Z,11772
2018-03-15T12:48:16.566Z,11692
2018-03-15T12:49:18.197Z,11528
2018-03-15T12:50:19.817Z,11424
2018-03-15T12:51:22.214Z,11368
2018-03-15T12:52:23.833Z,11412
2018-03-15T12:53:25.455Z,11712
2018-03-15T12:54:27.084Z,11944
2018-03-15T12:55:28.710Z,12084
2018-03-15T12:56:30.869Z,12316
2018-03-15T12:57:32.518Z,11840
2018-03-15T12:58:34.117Z,12548
2018-03-15T12:59:35.738Z,12140
2018-03-15T13:00:37.366Z,10308
2018-03-15T13:01:38.989Z,9140
2018-03-15T13:02:40.614Z,12368
2018-03-15T13:03:42.237Z,12248
2018-03-15T13:04:43.866Z,12156
2018-03-15T13:05:45.496Z,11896
2018-03-15T13:06:47.111Z,11824
2018-03-15T13:07:48.732Z,11892
2018-03-15T13:08:50.363Z,11780
2018-03-15T13:09:51.982Z,11476
2018-03-15T13:10:53.613Z,11368
2018-03-15T13:11:55.277Z,11344
2018-03-15T13:12:56.861Z,11112
2018-03-15T13:13:58.481Z,10768
2018-03-15T13:15:00.106Z,10448
2018-03-15T13:16:01.731Z,10176
2018-03-15T13:17:03.356Z,9940
2018-03-15T13:18:04.978Z,9780
2018-03-15T13:19:06.605Z,9532
2018-03-15T13:20:08.221Z,9324
2018-03-15T13:21:09.846Z,9132
2018-03-15T13:22:11.468Z,9016
2018-03-15T13:23:13.126Z,9000
2018-03-15T13:24:15.302Z,8964
2018-03-15T13:25:16.923Z,8928
2018-03-15T13:26:18.551Z,8884
2018-03-15T13:27:20.172Z,8880
2018-03-15T13:28:21.806Z,8872
2018-03-15T13:29:23.420Z,8848
2018-03-15T13:30:25.051Z,8848
2018-03-15T13:31:26.662Z,8836
2018-03-15T13:32:28.287Z,8796
2018-03-15T13:33:29.910Z,8740
2018-03-15T13:34:31.534Z,8664
2018-03-15T13:35:33.152Z,8576
2018-03-15T13:36:34.779Z,8504
2018-03-15T13:37:36.399Z,8428
2018-03-15T13:38:38.028Z,8368
2018-03-15T13:39:39.646Z,8292
2018-03-15T13:40:41.275Z,8188
2018-03-15T13:41:42.893Z,8076
2018-03-15T13:42:44.515Z,7960
2018-03-15T13:43:46.132Z,7816
2018-03-15T13:44:47.749Z,7680
2018-03-15T13:45:49.371Z,7572
2018-03-15T13:46:50.992Z,7504
2018-03-15T13:47:52.618Z,7468
2018-03-15T13:48:54.241Z,7424
2018-03-15T13:49:55.858Z,7372
2018-03-15T13:50:57.479Z,7312
2018-03-15T13:51:59.126Z,7256
2018-03-15T13:53:00.726Z,7232
2018-03-15T13:54:02.345Z,7192
2018-03-15T13:55:03.966Z,7184
2018-03-15T13:56:05.597Z,7184
2018-03-15T13:57:07.214Z,7196
2018-03-15T13:58:08.839Z,7192
2018-03-15T13:59:10.462Z,7172
2018-03-15T14:00:12.085Z,7132
2018-03-15T14:01:13.707Z,7092
2018-03-15T14:02:15.327Z,7064
2018-03-15T14:03:16.987Z,7052